createdAt,value
2019-04-16T00:02:38.815Z,45.80
2019-04-16T00:05:17.227Z,45.80
2019-04-16T00:07:55.627Z,45.70
2019-04-16T00:10:43.813Z,45.70
2019-04-16T00:13:24.025Z,45.60
2019-04-16T00:15:54.837Z,45.60
2019-04-16T00:18:25.489Z,45.60
2019-04-16T00:21:30.804Z,45.60
2019-04-16T00:24:20.073Z,45.60
2019-04-16T00:26:52.459Z,45.60
2019-04-16T00:29:22.874Z,45.60
2019-04-16T00:31:59.656Z,45.60
2019-04-16T00:34:30.071Z,45.60
2019-04-16T00:37:00.570Z,45.60
2019-04-16T00:39:30.971Z,45.60
2019-04-16T00:42:01.738Z,45.70
2019-04-16T00:44:32.140Z,46.30
2019-04-16T00:47:02.894Z,45.80
2019-04-16T00:49:33.295Z,45.80
2019-04-16T00:52:06.775Z,45.70
2019-04-16T00:54:36.514Z,45.80
2019-04-16T00:57:06.897Z,45.90
2019-04-16T00:59:37.325Z,45.90
2019-04-16T01:02:07.822Z,46.00
2019-04-16T01:04:38.153Z,46.10
2019-04-16T01:07:08.556Z,46.20
2019-04-16T01:09:38.963Z,46.30
2019-04-16T01:12:10.029Z,46.30
2019-04-16T01:14:40.373Z,46.40
2019-04-16T01:17:11.153Z,46.30
2019-04-16T01:19:41.947Z,46.40
2019-04-16T01:22:15.984Z,46.60
2019-04-16T01:24:51.538Z,46.60
2019-04-16T01:27:21.135Z,46.40
2019-04-16T01:29:52.278Z,46.50
2019-04-16T01:32:42.735Z,46.60
2019-04-16T01:35:40.976Z,46.70
2019-04-16T01:38:36.184Z,46.70
2019-04-16T01:41:09.288Z,46.90
2019-04-16T01:43:39.753Z,46.90
2019-04-16T01:46:10.157Z,47.10
2019-04-16T01:48:41.218Z,47.30
2019-04-16T01:51:12.606Z,47.30
2019-04-16T01:53:43.853Z,47.30
2019-04-16T01:56:14.399Z,47.30
2019-04-16T01:58:44.989Z,47.30
2019-04-16T02:01:15.414Z,47.30
2019-04-16T02:03:48.928Z,47.20
2019-04-16T02:06:18.525Z,47.30
2019-04-16T02:08:48.967Z,47.30
2019-04-16T02:11:19.281Z,47.30
2019-04-16T02:13:49.605Z,47.40
2019-04-16T02:16:22.393Z,47.60
2019-04-16T02:18:52.500Z,48.10
2019-04-16T02:21:23.189Z,47.70
2019-04-16T02:23:53.756Z,47.90
2019-04-16T02:26:24.273Z,47.90
2019-04-16T02:28:56.465Z,48.10
2019-04-16T02:31:27.080Z,48.00
2019-04-16T02:33:57.690Z,48.10
2019-04-16T02:36:28.114Z,48.10
2019-04-16T02:38:58.884Z,48.30
2019-04-16T02:41:29.554Z,48.50
2019-04-16T02:43:59.910Z,48.50
2019-04-16T02:46:32.409Z,48.50
2019-04-16T02:49:02.424Z,48.50
2019-04-16T02:51:57.483Z,48.60
2019-04-16T02:54:44.571Z,48.80
2019-04-16T02:57:52.446Z,48.70
2019-04-16T03:00:36.778Z,48.80
2019-04-16T03:03:10.856Z,48.80
2019-04-16T03:05:43.505Z,48.90
2019-04-16T03:08:13.882Z,49.00
2019-04-16T03:10:45.365Z,49.00
2019-04-16T03:13:16.370Z,49.00
2019-04-16T03:16:06.278Z,49.10
2019-04-16T03:18:47.401Z,49.20
2019-04-16T03:21:17.192Z,49.10
2019-04-16T03:23:47.549Z,49.20
2019-04-16T03:26:18.396Z,49.30
2019-04-16T03:28:49.066Z,49.30
2019-04-16T03:31:23.164Z,50.00
2019-04-16T03:33:51.973Z,49.50
2019-04-16T03:36:22.370Z,49.50
2019-04-16T03:38:52.807Z,49.70
2019-04-16T03:41:24.912Z,49.70
2019-04-16T03:43:55.267Z,49.70
2019-04-16T03:46:25.658Z,49.80
2019-04-16T03:48:56.539Z,49.70
2019-04-16T03:51:26.842Z,49.80
2019-04-16T03:53:57.240Z,50.00
2019-04-16T03:56:30.592Z,49.90
2019-04-16T03:59:00.249Z,50.00
2019-04-16T04:01:30.628Z,50.10
2019-04-16T04:04:01.337Z,50.10
2019-04-16T04:06:32.187Z,50.10
2019-04-16T04:09:02.582Z,50.40
2019-04-16T04:11:33.058Z,50.40
2019-04-16T04:14:03.845Z,50.40
2019-04-16T04:16:34.594Z,50.40
2019-04-16T04:19:05.033Z,50.50
2019-04-16T04:21:35.399Z,50.60
2019-04-16T04:24:05.796Z,50.80
2019-04-16T04:26:41.081Z,50.70
2019-04-16T04:29:08.224Z,50.80
2019-04-16T04:31:38.805Z,50.80
2019-04-16T04:34:10.717Z,50.90
2019-04-16T04:36:42.252Z,50.90
2019-04-16T04:39:15.253Z,51.00
2019-04-16T04:41:46.430Z,51.10
2019-04-16T04:44:18.801Z,51.20
2019-04-16T04:46:53.937Z,51.10
2019-04-16T04:49:24.479Z,51.10
2019-04-16T04:52:00.554Z,51.20
2019-04-16T04:54:30.914Z,51.30
2019-04-16T04:57:01.603Z,51.20
2019-04-16T04:59:36.479Z,51.20
2019-04-16T05:02:04.163Z,51.40
2019-04-16T05:04:44.956Z,51.40
2019-04-16T05:07:15.803Z,51.40
2019-04-16T05:09:46.210Z,51.20
2019-04-16T05:12:17.821Z,51.10
2019-04-16T05:14:58.423Z,51.20
2019-04-16T05:17:29.620Z,51.60
2019-04-16T05:20:00.026Z,52.30
2019-04-16T05:22:32.994Z,52.80
2019-04-16T05:25:05.974Z,51.50
2019-04-16T05:27:40.253Z,50.80
2019-04-16T05:30:08.656Z,49.00
2019-04-16T05:32:39.113Z,48.00
2019-04-16T05:35:10.816Z,47.20
2019-04-16T05:37:43.448Z,46.60
2019-04-16T05:40:14.539Z,46.50
2019-04-16T05:42:45.029Z,46.10
2019-04-16T05:45:20.775Z,46.40
2019-04-16T05:48:00.242Z,46.20
2019-04-16T05:50:30.755Z,45.60
2019-04-16T05:53:01.206Z,45.20
2019-04-16T05:55:57.744Z,45.00
2019-04-16T05:59:12.304Z,45.00
2019-04-16T06:01:57.322Z,45.10
2019-04-16T06:07:42.236Z,45.10
2019-04-16T06:10:17.113Z,45.50
2019-04-16T06:13:20.092Z,45.60
2019-04-16T06:16:14.439Z,45.70
2019-04-16T06:19:46.484Z,45.80
2019-04-16T06:22:39.796Z,46.00
2019-04-16T06:25:33.707Z,46.10
2019-04-16T06:28:27.995Z,46.00
2019-04-16T06:31:29.559Z,46.20
2019-04-16T06:34:15.101Z,46.20
2019-04-16T06:37:11.309Z,46.30
2019-04-16T06:40:07.109Z,46.40
2019-04-16T06:42:43.038Z,46.30
2019-04-16T06:45:21.650Z,46.40
2019-04-16T06:48:03.896Z,46.50
2019-04-16T06:50:47.153Z,46.40
2019-04-16T06:53:41.244Z,46.30
2019-04-16T06:56:40.390Z,46.10
2019-04-16T06:59:17.895Z,46.00
2019-04-16T07:02:11.252Z,45.90
2019-04-16T07:05:07.697Z,45.80
2019-04-16T07:08:07.890Z,45.60
2019-04-16T07:10:44.601Z,45.50
2019-04-16T07:13:16.054Z,45.60
2019-04-16T07:15:47.102Z,45.40
2019-04-16T07:18:21.166Z,45.20
2019-04-16T07:20:52.127Z,45.20
2019-04-16T07:23:24.772Z,45.10
2019-04-16T07:25:57.789Z,45.00
2019-04-16T07:28:45.218Z,45.00
2019-04-16T07:31:33.238Z,45.00
2019-04-16T07:34:29.489Z,44.90
2019-04-16T07:37:15.071Z,44.80
2019-04-16T07:40:10.274Z,44.60
2019-04-16T07:43:10.502Z,44.60
2019-04-16T07:45:50.396Z,43.60
2019-04-16T07:48:41.851Z,43.30
2019-04-16T07:51:23.452Z,43.30
2019-04-16T07:54:21.732Z,43.00
2019-04-16T07:56:58.431Z,42.90
2019-04-16T07:59:31.994Z,42.70
2019-04-16T08:02:05.031Z,42.50
2019-04-16T08:04:36.394Z,42.10
2019-04-16T08:07:07.213Z,41.90
2019-04-16T08:09:37.652Z,41.40
2019-04-16T08:12:32.337Z,41.00
2019-04-16T08:15:13.361Z,40.80
2019-04-16T08:17:39.851Z,40.30
2019-04-16T08:20:10.742Z,40.20
2019-04-16T08:22:47.331Z,40.10
2019-04-16T08:25:33.703Z,39.80
2019-04-16T08:28:02.591Z,39.80
2019-04-16T08:30:39.279Z,40.00
2019-04-16T08:33:12.089Z,39.90
2019-04-16T08:35:55.613Z,39.80
2019-04-16T08:38:26.460Z,39.10
2019-04-16T08:40:57.161Z,39.00
2019-04-16T08:43:29.607Z,38.80
2019-04-16T08:46:00.160Z,38.80
2019-04-16T08:48:33.556Z,38.90
2019-04-16T08:51:05.318Z,38.70
2019-04-16T08:53:36.197Z,38.80
2019-04-16T08:56:06.705Z,38.70
2019-04-16T08:58:38.401Z,38.60
2019-04-16T09:01:18.709Z,38.40
2019-04-16T09:03:52.196Z,38.70
2019-04-16T09:06:27.153Z,38.90
2019-04-16T09:09:24.760Z,38.70
2019-04-16T09:12:08.914Z,38.70
2019-04-16T09:14:42.581Z,38.70
2019-04-16T09:17:33.105Z,38.90
2019-04-16T09:20:27.040Z,38.00
2019-04-16T09:23:02.961Z,38.30
2019-04-16T09:26:14.115Z,38.40
2019-04-16T09:28:51.639Z,38.50
2019-04-16T09:31:44.110Z,38.60
2019-04-16T09:34:32.465Z,38.60
2019-04-16T09:37:21.426Z,38.70
2019-04-16T09:40:28.534Z,38.50
2019-04-16T09:43:16.066Z,38.20
2019-04-16T09:45:37.193Z,37.90
2019-04-16T09:48:10.433Z,37.90
2019-04-16T09:50:47.872Z,37.50
2019-04-16T09:53:32.632Z,37.40
2019-04-16T09:55:59.580Z,37.40
2019-04-16T09:58:30.337Z,37.10
2019-04-16T10:01:07.057Z,36.40
2019-04-16T10:03:40.642Z,36.40
2019-04-16T10:06:11.223Z,36.80
2019-04-16T10:08:49.862Z,36.60
2019-04-16T10:11:20.541Z,36.30
2019-04-16T10:13:53.381Z,36.30
2019-04-16T10:16:25.896Z,36.20
2019-04-16T10:19:01.051Z,36.00
2019-04-16T10:21:31.958Z,36.00
2019-04-16T10:24:23.238Z,36.00
2019-04-16T10:26:57.014Z,35.70
2019-04-16T10:29:53.467Z,35.70
2019-04-16T10:32:21.319Z,35.90
2019-04-16T10:34:52.658Z,36.10
2019-04-16T10:37:23.663Z,36.30
2019-04-16T10:40:05.293Z,36.20
2019-04-16T10:42:53.542Z,36.30
2019-04-16T10:45:45.616Z,36.20
2019-04-16T10:48:34.263Z,36.10
2019-04-16T10:51:35.862Z,35.90
2019-04-16T10:54:33.788Z,35.00
2019-04-16T10:57:18.115Z,35.30
2019-04-16T11:00:02.249Z,34.90
2019-04-16T11:02:39.176Z,34.90
2019-04-16T11:05:32.352Z,34.10
2019-04-16T11:08:07.545Z,33.70
2019-04-16T11:10:40.789Z,32.80
2019-04-16T11:13:26.271Z,32.10
2019-04-16T11:16:01.460Z,32.20
2019-04-16T11:18:31.929Z,32.20
2019-04-16T11:21:02.341Z,32.20
2019-04-16T11:23:34.230Z,32.40
2019-04-16T11:26:05.011Z,32.20
2019-04-16T11:28:36.737Z,32.00
2019-04-16T11:31:11.853Z,31.90
2019-04-16T11:33:47.675Z,31.00
2019-04-16T11:36:20.729Z,30.80
2019-04-16T11:38:52.217Z,30.70
2019-04-16T11:41:22.944Z,30.50
2019-04-16T11:44:15.250Z,30.40
2019-04-16T11:46:40.475Z,30.30
2019-04-16T11:49:27.111Z,30.50
2019-04-16T11:51:57.650Z,30.00
2019-04-16T11:54:28.813Z,30.00
2019-04-16T11:57:02.997Z,30.00
2019-04-16T11:59:33.905Z,30.10
2019-04-16T12:02:11.119Z,30.10
2019-04-16T12:05:00.251Z,30.00
2019-04-16T12:07:47.149Z,30.00
2019-04-16T12:10:35.986Z,29.80
2019-04-16T12:13:24.507Z,29.80
2019-04-16T12:16:17.233Z,30.20
2019-04-16T12:19:13.223Z,30.00
2019-04-16T12:22:15.241Z,30.00
2019-04-16T12:24:57.187Z,30.00
2019-04-16T12:27:45.564Z,30.00
2019-04-16T12:30:40.555Z,30.00
2019-04-16T12:33:46.117Z,30.00
2019-04-16T12:36:25.734Z,30.00
2019-04-16T12:39:08.170Z,30.00
2019-04-16T12:41:59.998Z,29.90
2019-04-16T12:45:02.248Z,29.80
2019-04-16T12:48:00.283Z,29.70
2019-04-16T12:50:39.375Z,30.00
2019-04-16T12:53:19.468Z,30.10
2019-04-16T12:56:10.749Z,30.00
2019-04-16T12:59:12.146Z,30.00
2019-04-16T13:01:58.507Z,29.80
2019-04-16T13:04:58.072Z,29.50
2019-04-16T13:08:31.439Z,29.40
2019-04-16T13:11:19.793Z,29.50
2019-04-16T13:14:12.002Z,29.60
2019-04-16T13:17:01.984Z,29.50
2019-04-16T13:19:56.534Z,29.00
2019-04-16T13:22:33.265Z,29.10
2019-04-16T13:25:15.963Z,29.00
2019-04-16T13:27:50.826Z,28.90
2019-04-16T13:30:23.998Z,28.80
2019-04-16T13:33:18.443Z,28.70
2019-04-16T13:35:50.858Z,28.30
2019-04-16T13:38:24.603Z,28.50
2019-04-16T13:40:55.347Z,29.10
2019-04-16T13:43:36.872Z,28.30
2019-04-16T13:46:18.361Z,28.20
2019-04-16T13:49:11.235Z,28.10
2019-04-16T13:51:47.778Z,28.10
2019-04-16T13:54:34.076Z,28.20
2019-04-16T13:57:06.464Z,28.30
2019-04-16T13:59:56.105Z,28.30
2019-04-16T14:02:32.671Z,28.10
2019-04-16T14:05:09.978Z,27.70
2019-04-16T14:07:42.263Z,27.60
2019-04-16T14:10:13.332Z,27.60
2019-04-16T14:12:46.048Z,27.70
2019-04-16T14:15:32.131Z,27.90
2019-04-16T14:18:00.759Z,27.90
2019-04-16T14:20:31.565Z,27.90
2019-04-16T14:23:04.453Z,27.70
2019-04-16T14:25:37.232Z,27.40
2019-04-16T14:28:08.115Z,27.60
2019-04-16T14:30:44.240Z,27.50
2019-04-16T14:33:20.639Z,27.60
2019-04-16T14:35:52.181Z,27.70
2019-04-16T14:38:35.152Z,27.60
2019-04-16T14:41:19.961Z,27.60
2019-04-16T14:44:02.548Z,27.60
2019-04-16T14:46:32.217Z,27.70
2019-04-16T14:49:02.608Z,27.70
2019-04-16T14:51:33.240Z,27.70
2019-04-16T14:54:21.554Z,27.80
2019-04-16T14:56:54.813Z,27.70
2019-04-16T14:59:47.102Z,27.40
2019-04-16T15:02:34.816Z,27.10
2019-04-16T15:05:24.554Z,27.00
2019-04-16T15:08:14.277Z,27.00
2019-04-16T15:11:07.820Z,26.70
2019-04-16T15:13:44.869Z,26.40
2019-04-16T15:16:43.511Z,26.30
2019-04-16T15:19:26.848Z,26.30
2019-04-16T15:22:18.072Z,26.70
2019-04-16T15:25:10.682Z,26.80
2019-04-16T15:27:49.858Z,26.80
2019-04-16T15:30:37.936Z,26.80
2019-04-16T15:33:31.934Z,26.90
2019-04-16T15:36:07.585Z,27.00
2019-04-16T15:38:43.548Z,27.10
2019-04-16T15:41:27.410Z,26.90
2019-04-16T15:44:11.157Z,26.80
2019-04-16T15:47:07.140Z,26.80
2019-04-16T15:49:49.662Z,26.70
2019-04-16T15:52:53.115Z,26.40
2019-04-16T15:55:49.757Z,26.30
2019-04-16T15:58:43.274Z,26.40
2019-04-16T16:01:31.300Z,26.70
2019-04-16T16:04:17.422Z,27.30
2019-04-16T16:06:52.289Z,27.60
2019-04-16T16:09:26.732Z,27.90
2019-04-16T16:12:09.909Z,27.90
2019-04-16T16:14:39.334Z,28.10
2019-04-16T16:17:10.506Z,28.20
2019-04-16T16:19:41.239Z,28.40
2019-04-16T16:22:16.428Z,28.50
2019-04-16T16:24:51.068Z,28.70
2019-04-16T16:27:28.629Z,28.80
2019-04-16T16:30:05.515Z,28.90
2019-04-16T16:32:36.162Z,29.00
2019-04-16T16:35:09.140Z,29.10
2019-04-16T16:37:40.454Z,29.00
2019-04-16T16:40:15.200Z,29.10
2019-04-16T16:42:45.925Z,29.60
2019-04-16T16:45:16.827Z,29.10
2019-04-16T16:47:48.038Z,29.20
2019-04-16T16:50:20.238Z,29.20
2019-04-16T16:53:28.164Z,29.20
2019-04-16T16:56:04.252Z,29.30
2019-04-16T16:58:58.240Z,29.30
2019-04-16T17:01:48.592Z,29.40
2019-04-16T17:04:26.330Z,29.50
2019-04-16T17:07:01.210Z,29.50
2019-04-16T17:09:39.515Z,29.60
2019-04-16T17:12:17.850Z,29.50
2019-04-16T17:14:52.274Z,29.60
2019-04-16T17:17:26.124Z,29.60
2019-04-16T17:19:59.457Z,29.70
2019-04-16T17:22:33.448Z,29.80
2019-04-16T17:25:04.003Z,29.90
2019-04-16T17:27:50.304Z,29.90
2019-04-16T17:30:08.439Z,29.90
2019-04-16T17:32:38.973Z,30.00
2019-04-16T17:35:14.421Z,30.00
2019-04-16T17:37:42.747Z,30.10
2019-04-16T17:40:25.584Z,30.10
2019-04-16T17:43:03.237Z,30.10
2019-04-16T17:45:55.932Z,30.20
2019-04-16T17:48:47.752Z,30.10
2019-04-16T17:51:28.084Z,30.00
2019-04-16T17:54:26.144Z,30.00
2019-04-16T17:57:14.674Z,30.00
2019-04-16T18:00:00.787Z,29.90
2019-04-16T18:03:02.997Z,30.00
2019-04-16T18:05:46.665Z,29.90
2019-04-16T18:08:41.412Z,30.00
2019-04-16T18:11:19.984Z,30.00
2019-04-16T18:14:11.544Z,30.00
2019-04-16T18:17:18.092Z,30.00
2019-04-16T18:20:04.026Z,30.00
2019-04-16T18:22:45.792Z,30.10
2019-04-16T18:25:38.314Z,30.10
2019-04-16T18:28:32.194Z,30.20
2019-04-16T18:31:11.392Z,30.10
2019-04-16T18:34:09.238Z,30.20
2019-04-16T18:36:56.406Z,30.20
2019-04-16T18:39:51.360Z,30.40
2019-04-16T18:42:32.929Z,31.20
2019-04-16T18:45:42.951Z,30.60
2019-04-16T18:48:20.092Z,30.70
2019-04-16T18:50:50.725Z,30.80
2019-04-16T18:53:21.503Z,30.80
2019-04-16T18:55:52.380Z,30.90
2019-04-16T18:58:23.295Z,30.90
2019-04-16T19:01:00.462Z,31.10
2019-04-16T19:03:32.734Z,31.20
2019-04-16T19:06:03.130Z,31.20
2019-04-16T19:08:41.486Z,31.30
2019-04-16T19:11:06.193Z,31.50
2019-04-16T19:13:36.631Z,31.50
2019-04-16T19:16:07.005Z,31.50
2019-04-16T19:18:37.420Z,31.50
2019-04-16T19:21:07.853Z,31.40
2019-04-16T19:23:38.354Z,31.60
2019-04-16T19:26:08.778Z,31.80
2019-04-16T19:28:40.366Z,31.80
2019-04-16T19:31:11.214Z,31.90
2019-04-16T19:33:41.735Z,31.90
2019-04-16T19:36:12.282Z,31.90
2019-04-16T19:38:42.839Z,32.10
2019-04-16T19:41:13.627Z,32.10
2019-04-16T19:43:46.225Z,32.80
2019-04-16T19:46:16.751Z,32.10
2019-04-16T19:48:49.210Z,32.20
2019-04-16T19:51:20.325Z,32.30
2019-04-16T19:53:53.925Z,32.40
2019-04-16T19:56:33.608Z,32.40
2019-04-16T19:59:05.352Z,32.50
2019-04-16T20:01:36.157Z,32.40
2019-04-16T20:04:10.644Z,32.50
2019-04-16T20:06:40.757Z,32.60
2019-04-16T20:09:11.443Z,32.60
2019-04-16T20:11:41.827Z,32.60
2019-04-16T20:14:12.229Z,32.80
2019-04-16T20:16:42.688Z,32.90
2019-04-16T20:19:14.799Z,32.90
2019-04-16T20:21:45.239Z,33.00
2019-04-16T20:24:17.245Z,33.20
2019-04-16T20:26:47.641Z,33.20
2019-04-16T20:29:18.242Z,33.20
2019-04-16T20:31:51.275Z,33.40
2019-04-16T20:34:22.283Z,33.50
2019-04-16T20:36:55.775Z,34.10
2019-04-16T20:39:26.487Z,33.60
2019-04-16T20:41:59.387Z,33.70
2019-04-16T20:44:31.103Z,33.70
2019-04-16T20:47:07.747Z,33.80
2019-04-16T20:49:36.293Z,33.90
2019-04-16T20:52:09.134Z,34.00
2019-04-16T20:54:44.227Z,34.00
2019-04-16T20:57:13.778Z,34.10
2019-04-16T20:59:49.942Z,34.10
2019-04-16T21:02:21.162Z,34.20
2019-04-16T21:04:52.200Z,34.20
2019-04-16T21:07:23.458Z,34.20
2019-04-16T21:09:55.637Z,34.30
2019-04-16T21:12:26.086Z,34.40
2019-04-16T21:14:57.424Z,34.40
2019-04-16T21:17:30.685Z,34.30
2019-04-16T21:20:02.465Z,34.30
2019-04-16T21:22:33.095Z,34.40
2019-04-16T21:25:12.952Z,34.60
2019-04-16T21:28:00.067Z,34.60
2019-04-16T21:30:32.134Z,34.70
2019-04-16T21:33:08.040Z,34.70
2019-04-16T21:35:41.124Z,34.70
2019-04-16T21:38:20.088Z,34.70
2019-04-16T21:40:57.446Z,34.90
2019-04-16T21:43:29.784Z,34.90
2019-04-16T21:46:00.334Z,34.90
2019-04-16T21:48:30.941Z,35.00
2019-04-16T21:51:01.792Z,35.00
2019-04-16T21:53:32.820Z,35.10
2019-04-16T21:56:08.163Z,35.10
2019-04-16T21:58:36.934Z,35.20
2019-04-16T22:01:19.539Z,35.30
2019-04-16T22:03:54.635Z,35.30
2019-04-16T22:06:25.039Z,35.40
2019-04-16T22:08:55.878Z,35.40
2019-04-16T22:11:27.010Z,35.60
2019-04-16T22:13:57.607Z,35.70
2019-04-16T22:16:29.888Z,35.80
2019-04-16T22:19:01.755Z,35.90
2019-04-16T22:21:32.244Z,35.70
2019-04-16T22:24:02.604Z,36.20
2019-04-16T22:26:35.284Z,36.20
2019-04-16T22:29:06.057Z,36.20
2019-04-16T22:31:36.892Z,36.10
2019-04-16T22:34:07.397Z,36.10
2019-04-16T22:36:37.993Z,36.10
2019-04-16T22:39:22.224Z,36.10
2019-04-16T22:41:58.515Z,36.10
2019-04-16T22:44:46.983Z,36.20
2019-04-16T22:47:22.458Z,36.30
2019-04-16T22:49:56.727Z,36.20
2019-04-16T22:52:25.167Z,36.40
2019-04-16T22:54:56.453Z,36.40
2019-04-16T22:57:26.982Z,36.40
2019-04-16T23:00:00.393Z,36.50
2019-04-16T23:02:34.997Z,36.40
2019-04-16T23:05:06.418Z,36.50
2019-04-16T23:07:40.370Z,36.50
2019-04-16T23:10:11.050Z,36.60
2019-04-16T23:12:41.604Z,36.60
2019-04-16T23:15:14.079Z,36.70
2019-04-16T23:17:46.022Z,36.70
2019-04-16T23:20:28.446Z,36.70
2019-04-16T23:22:48.860Z,36.70
2019-04-16T23:25:19.345Z,36.70
2019-04-16T23:27:49.909Z,36.90
2019-04-16T23:30:20.371Z,36.90
2019-04-16T23:32:50.876Z,37.00
2019-04-16T23:35:24.896Z,37.00
2019-04-16T23:37:58.339Z,37.00
2019-04-16T23:40:25.642Z,37.00
2019-04-16T23:42:59.827Z,37.00
2019-04-16T23:45:45.358Z,36.90
2019-04-16T23:48:53.540Z,37.00
2019-04-16T23:51:32.279Z,37.00
2019-04-16T23:54:14.120Z,37.80
2019-04-16T23:57:03.531Z,37.90
2019-04-16T23:59:42.373Z,38.00
